PUA1497 SUMU-SBMO
Flight info
| Callsign | PUA1497 |
|---|---|
| Flight time | 3h 56m |
| Altitude | 39000 |
| Route | MOLBI UM540 ANISE UZ23 ANDIG |
| Aircraft | B78X/H-SDE1E2E3FGHIJ2J3J4J5M1RWXY/LB1D1 |
Departure
| Time | 2026-04-26 09:02 |
|---|---|
| Airport | Carrasco General Cesáreo L. Berisso International Airport (SUMU) |
Arrival
| Time | 2026-04-26 12:58 |
|---|---|
| Airport | Zumbi dos Palmares International Airport (SBMO) |
| Time | Latitude | Longitude | Altitude | Speed | Heading |
|---|---|---|---|---|---|
| 2026-04-26 08:43 | -34.83609 | -56.01811 | 88 ft | 0 kts | 144° |
| 2026-04-26 08:49 | -34.83598 | -56.01821 | 91 ft | 2 kts | 143° |
| 2026-04-26 08:49 | -34.83585 | -56.01833 | 89 ft | 2 kts | 139° |
| 2026-04-26 08:49 | -34.83573 | -56.01846 | 91 ft | 2 kts | 139° |
| 2026-04-26 08:50 | -34.83561 | -56.01860 | 91 ft | 2 kts | 79° |
| 2026-04-26 08:56 | -34.83560 | -56.01860 | 88 ft | 1 kts | 79° |
| 2026-04-26 08:56 | -34.83541 | -56.01832 | 90 ft | 7 kts | 36° |
| 2026-04-26 08:57 | -34.83485 | -56.01782 | 90 ft | 12 kts | 36° |
| 2026-04-26 08:57 | -34.83405 | -56.01768 | 92 ft | 12 kts | 329° |
| 2026-04-26 08:57 | -34.83334 | -56.01831 | 91 ft | 14 kts | 326° |
| 2026-04-26 08:57 | -34.83249 | -56.01802 | 92 ft | 15 kts | 57° |
| 2026-04-26 08:58 | -34.83190 | -56.01677 | 93 ft | 19 kts | 60° |
| 2026-04-26 08:58 | -34.83116 | -56.01522 | 91 ft | 23 kts | 60° |
| 2026-04-26 08:58 | -34.83017 | -56.01357 | 92 ft | 25 kts | 51° |
| 2026-04-26 08:58 | -34.82899 | -56.01181 | 90 ft | 27 kts | 51° |
| 2026-04-26 08:59 | -34.82834 | -56.01085 | 92 ft | 0 kts | 48° |
| 2026-04-26 08:59 | -34.82842 | -56.01095 | 92 ft | 2 kts | 48° |
| 2026-04-26 08:59 | -34.82853 | -56.01110 | 93 ft | 2 kts | 48° |
| 2026-04-26 08:59 | -34.82863 | -56.01126 | 91 ft | 2 kts | 13° |
| 2026-04-26 09:00 | -34.82873 | -56.01129 | 93 ft | 0 kts | 338° |
| 2026-04-26 09:00 | -34.82826 | -56.01140 | 88 ft | 13 kts | 350° |
| 2026-04-26 09:00 | -34.82726 | -56.01163 | 92 ft | 16 kts | 344° |
| 2026-04-26 09:01 | -34.82703 | -56.01220 | 91 ft | 7 kts | 244° |
| 2026-04-26 09:01 | -34.82807 | -56.01394 | 91 ft | 60 kts | 233° |
| 2026-04-26 09:01 | -34.83221 | -56.02072 | 92 ft | 137 kts | 233° |
| 2026-04-26 09:01 | -34.83917 | -56.03213 | 243 ft | 187 kts | 234° |
| 2026-04-26 09:02 | -34.84726 | -56.04501 | 1046 ft | 198 kts | 234° |
| 2026-04-26 09:02 | -34.85564 | -56.05745 | 2345 ft | 177 kts | 234° |
| 2026-04-26 09:02 | -34.86311 | -56.07028 | 2994 ft | 195 kts | 244° |
| 2026-04-26 09:02 | -34.86637 | -56.08565 | 4021 ft | 185 kts | 267° |
| 2026-04-26 09:03 | -34.86329 | -56.10137 | 4684 ft | 199 kts | 296° |
| 2026-04-26 09:03 | -34.85295 | -56.11318 | 5423 ft | 215 kts | 327° |
| 2026-04-26 09:03 | -34.83765 | -56.11572 | 6185 ft | 237 kts | 1° |
| 2026-04-26 09:03 | -34.82225 | -56.10721 | 6913 ft | 255 kts | 26° |
| 2026-04-26 09:04 | -34.80788 | -56.09376 | 7603 ft | 269 kts | 36° |
| 2026-04-26 09:04 | -34.79450 | -56.07704 | 8188 ft | 286 kts | 44° |
| 2026-04-26 09:04 | -34.78153 | -56.05955 | 9515 ft | 257 kts | 39° |
| 2026-04-26 09:04 | -34.76856 | -56.04693 | 10860 ft | 238 kts | 29° |
| 2026-04-26 09:05 | -34.75580 | -56.03118 | 10827 ft | 287 kts | 47° |
| 2026-04-26 09:05 | -34.74265 | -56.01059 | 10886 ft | 325 kts | 46° |
| 2026-04-26 09:05 | -34.72714 | -55.98943 | 11356 ft | 344 kts | 41° |
| 2026-04-26 09:05 | -34.70976 | -55.96809 | 11878 ft | 365 kts | 41° |
| 2026-04-26 09:06 | -34.69158 | -55.94532 | 12374 ft | 385 kts | 43° |
| 2026-04-26 09:06 | -34.67336 | -55.92149 | 13204 ft | 393 kts | 43° |
| 2026-04-26 09:06 | -34.65457 | -55.89700 | 14053 ft | 400 kts | 43° |
| 2026-04-26 09:06 | -34.63526 | -55.87237 | 14861 ft | 406 kts | 42° |
| 2026-04-26 09:07 | -34.61563 | -55.84741 | 15669 ft | 412 kts | 42° |
| 2026-04-26 09:07 | -34.59570 | -55.82185 | 16456 ft | 419 kts | 42° |
| 2026-04-26 09:07 | -34.57562 | -55.79603 | 17244 ft | 425 kts | 42° |
| 2026-04-26 09:07 | -34.55509 | -55.76977 | 18014 ft | 431 kts | 42° |
| 2026-04-26 09:08 | -34.53431 | -55.74327 | 18697 ft | 436 kts | 42° |
| 2026-04-26 09:08 | -34.51328 | -55.71641 | 19379 ft | 441 kts | 41° |
| 2026-04-26 09:08 | -34.49201 | -55.68923 | 20056 ft | 446 kts | 41° |
| 2026-04-26 09:08 | -34.47047 | -55.66174 | 20728 ft | 451 kts | 41° |
| 2026-04-26 09:09 | -34.44876 | -55.63409 | 21370 ft | 456 kts | 41° |
| 2026-04-26 09:09 | -34.42676 | -55.60609 | 21994 ft | 460 kts | 41° |
| 2026-04-26 09:09 | -34.40460 | -55.57790 | 22593 ft | 465 kts | 41° |
| 2026-04-26 09:09 | -34.38246 | -55.54975 | 23193 ft | 469 kts | 41° |
| 2026-04-26 09:10 | -34.35985 | -55.52102 | 23727 ft | 474 kts | 41° |
| 2026-04-26 09:10 | -34.33621 | -55.49315 | 24207 ft | 472 kts | 34° |
| 2026-04-26 09:10 | -34.31137 | -55.46690 | 24671 ft | 477 kts | 34° |
| 2026-04-26 09:10 | -34.28635 | -55.44031 | 25151 ft | 481 kts | 34° |
| 2026-04-26 09:11 | -34.26110 | -55.41343 | 25635 ft | 485 kts | 34° |
| 2026-04-26 09:11 | -34.23558 | -55.38635 | 26099 ft | 488 kts | 33° |
| 2026-04-26 09:11 | -34.20997 | -55.35923 | 26569 ft | 492 kts | 33° |
| 2026-04-26 09:11 | -34.18406 | -55.33181 | 27032 ft | 496 kts | 33° |
| 2026-04-26 09:12 | -34.15806 | -55.30427 | 27502 ft | 499 kts | 33° |
| 2026-04-26 09:12 | -34.13183 | -55.27652 | 27956 ft | 503 kts | 32° |
| 2026-04-26 09:12 | -34.10541 | -55.24861 | 28398 ft | 506 kts | 32° |
| 2026-04-26 09:12 | -34.07911 | -55.22085 | 28844 ft | 510 kts | 32° |
| 2026-04-26 09:13 | -34.05239 | -55.19268 | 29283 ft | 513 kts | 32° |
| 2026-04-26 09:13 | -34.02538 | -55.16421 | 29732 ft | 516 kts | 31° |
| 2026-04-26 09:13 | -33.99828 | -55.13568 | 30105 ft | 519 kts | 31° |
| 2026-04-26 09:13 | -33.97092 | -55.10689 | 30427 ft | 523 kts | 31° |
| 2026-04-26 09:14 | -33.94345 | -55.07803 | 30751 ft | 526 kts | 31° |
| 2026-04-26 09:14 | -33.91585 | -55.04904 | 31075 ft | 529 kts | 31° |
| 2026-04-26 09:14 | -33.88800 | -55.01982 | 31413 ft | 532 kts | 30° |
| 2026-04-26 09:14 | -33.85996 | -54.99043 | 31732 ft | 535 kts | 30° |
| 2026-04-26 09:15 | -33.83181 | -54.96095 | 32044 ft | 538 kts | 30° |
| 2026-04-26 09:15 | -33.80350 | -54.93133 | 32355 ft | 541 kts | 30° |
| 2026-04-26 09:15 | -33.77537 | -54.90191 | 32729 ft | 541 kts | 30° |
| 2026-04-26 09:15 | -33.74696 | -54.87221 | 33195 ft | 540 kts | 30° |
| 2026-04-26 09:16 | -33.71861 | -54.84262 | 33676 ft | 539 kts | 30° |
| 2026-04-26 09:16 | -33.69025 | -54.81308 | 34093 ft | 539 kts | 30° |
| 2026-04-26 09:16 | -33.66200 | -54.78366 | 34470 ft | 538 kts | 29° |
| 2026-04-26 09:16 | -33.63367 | -54.75417 | 34846 ft | 538 kts | 29° |
| 2026-04-26 09:17 | -33.60539 | -54.72477 | 35199 ft | 537 kts | 29° |
| 2026-04-26 09:17 | -33.57713 | -54.69541 | 35570 ft | 537 kts | 29° |
| 2026-04-26 09:17 | -33.54884 | -54.66606 | 35922 ft | 537 kts | 29° |
| 2026-04-26 09:17 | -33.52054 | -54.63672 | 36264 ft | 537 kts | 28° |
| 2026-04-26 09:18 | -33.49253 | -54.60770 | 36586 ft | 538 kts | 28° |
| 2026-04-26 09:18 | -33.46420 | -54.57838 | 36918 ft | 538 kts | 28° |
| 2026-04-26 09:18 | -33.43587 | -54.54908 | 37235 ft | 538 kts | 28° |
| 2026-04-26 09:18 | -33.40751 | -54.51979 | 37572 ft | 539 kts | 28° |
| 2026-04-26 09:19 | -33.37911 | -54.49047 | 37899 ft | 539 kts | 28° |
| 2026-04-26 09:19 | -33.35066 | -54.46112 | 38233 ft | 539 kts | 28° |
| 2026-04-26 09:19 | -33.32227 | -54.43187 | 38540 ft | 539 kts | 28° |
| 2026-04-26 09:19 | -33.29379 | -54.40255 | 38808 ft | 539 kts | 28° |
| 2026-04-26 09:20 | -33.26533 | -54.37331 | 38865 ft | 542 kts | 28° |
| 2026-04-26 09:20 | -33.20852 | -54.31484 | 38874 ft | 536 kts | 28° |
| 2026-04-26 09:21 | -33.15185 | -54.25687 | 38874 ft | 537 kts | 28° |
| 2026-04-26 09:21 | -33.09516 | -54.19875 | 38877 ft | 537 kts | 28° |
| 2026-04-26 09:22 | -33.03846 | -54.14087 | 38883 ft | 537 kts | 28° |
| 2026-04-26 09:22 | -32.98197 | -54.08323 | 38882 ft | 537 kts | 28° |
| 2026-04-26 09:23 | -32.92519 | -54.02543 | 38886 ft | 536 kts | 27° |
| 2026-04-26 09:23 | -32.86839 | -53.96769 | 38886 ft | 536 kts | 27° |
| 2026-04-26 09:24 | -32.81165 | -53.91012 | 38884 ft | 536 kts | 27° |
| 2026-04-26 09:24 | -32.75517 | -53.85291 | 38885 ft | 536 kts | 27° |
| 2026-04-26 09:25 | -32.69838 | -53.79550 | 38900 ft | 536 kts | 27° |
| 2026-04-26 09:25 | -32.64152 | -53.73811 | 38886 ft | 536 kts | 27° |
| 2026-04-26 09:26 | -32.58471 | -53.68085 | 38886 ft | 535 kts | 27° |
| 2026-04-26 09:26 | -32.52798 | -53.62380 | 38889 ft | 535 kts | 27° |
| 2026-04-26 09:27 | -32.47129 | -53.56687 | 38887 ft | 535 kts | 27° |
| 2026-04-26 09:27 | -32.41582 | -53.50700 | 38891 ft | 540 kts | 28° |
| 2026-04-26 09:28 | -32.36032 | -53.44709 | 38893 ft | 540 kts | 29° |
| 2026-04-26 09:28 | -32.30490 | -53.38700 | 38896 ft | 540 kts | 28° |
| 2026-04-26 09:29 | -32.24946 | -53.32722 | 38895 ft | 540 kts | 28° |
| 2026-04-26 09:29 | -32.19406 | -53.26746 | 38895 ft | 539 kts | 28° |
| 2026-04-26 09:30 | -32.13887 | -53.20812 | 38895 ft | 540 kts | 28° |
| 2026-04-26 09:30 | -32.08300 | -53.14812 | 38895 ft | 544 kts | 28° |
| 2026-04-26 09:31 | -32.02702 | -53.08802 | 38902 ft | 543 kts | 28° |
| 2026-04-26 09:31 | -31.97105 | -53.02818 | 38900 ft | 544 kts | 28° |
| 2026-04-26 09:32 | -31.91498 | -52.96821 | 38894 ft | 544 kts | 28° |
| 2026-04-26 09:32 | -31.85881 | -52.90833 | 38902 ft | 544 kts | 28° |
| 2026-04-26 09:33 | -31.80267 | -52.84852 | 38901 ft | 544 kts | 28° |
| 2026-04-26 09:33 | -31.74688 | -52.78923 | 38899 ft | 545 kts | 28° |
| 2026-04-26 09:34 | -31.69028 | -52.72914 | 38911 ft | 545 kts | 28° |
| 2026-04-26 09:34 | -31.63427 | -52.66981 | 38900 ft | 545 kts | 28° |
| 2026-04-26 09:35 | -31.57793 | -52.61023 | 38901 ft | 546 kts | 28° |
| 2026-04-26 09:35 | -31.52153 | -52.55062 | 38900 ft | 546 kts | 28° |
| 2026-04-26 09:36 | -31.46510 | -52.49098 | 38901 ft | 546 kts | 28° |
| 2026-04-26 09:36 | -31.40860 | -52.43144 | 38899 ft | 546 kts | 28° |
| 2026-04-26 09:37 | -31.35198 | -52.37182 | 38906 ft | 546 kts | 28° |
| 2026-04-26 09:37 | -31.29539 | -52.31239 | 38903 ft | 547 kts | 28° |
| 2026-04-26 09:38 | -31.23921 | -52.25343 | 38911 ft | 546 kts | 28° |
| 2026-04-26 09:38 | -31.18265 | -52.19422 | 38906 ft | 546 kts | 28° |
| 2026-04-26 09:39 | -31.12589 | -52.13486 | 38904 ft | 546 kts | 28° |
| 2026-04-26 09:39 | -31.06923 | -52.07572 | 38916 ft | 547 kts | 28° |
| 2026-04-26 09:40 | -31.01251 | -52.01662 | 38906 ft | 546 kts | 28° |
| 2026-04-26 09:40 | -30.96535 | -51.96755 | 38908 ft | 546 kts | 28° |
| 2026-04-26 09:41 | -30.90861 | -51.90862 | 38915 ft | 546 kts | 28° |
| 2026-04-26 09:41 | -30.85191 | -51.84980 | 38910 ft | 545 kts | 28° |
| 2026-04-26 09:42 | -30.79525 | -51.79114 | 38909 ft | 545 kts | 28° |
| 2026-04-26 09:42 | -30.73864 | -51.73261 | 38905 ft | 544 kts | 28° |
| 2026-04-26 09:43 | -30.68208 | -51.67425 | 38907 ft | 544 kts | 29° |
| 2026-04-26 09:43 | -30.62553 | -51.61598 | 38910 ft | 543 kts | 28° |
| 2026-04-26 09:44 | -30.56933 | -51.55817 | 38905 ft | 542 kts | 29° |
| 2026-04-26 09:44 | -30.51274 | -51.50031 | 38913 ft | 540 kts | 28° |
| 2026-04-26 09:45 | -30.45561 | -51.44393 | 38905 ft | 539 kts | 28° |
| 2026-04-26 09:45 | -30.39903 | -51.38711 | 38901 ft | 539 kts | 28° |
| 2026-04-26 09:46 | -30.34199 | -51.33051 | 38905 ft | 538 kts | 28° |
| 2026-04-26 09:46 | -30.28524 | -51.27400 | 38895 ft | 538 kts | 28° |
| 2026-04-26 09:47 | -30.22852 | -51.21772 | 38889 ft | 537 kts | 28° |
| 2026-04-26 09:47 | -30.17209 | -51.16180 | 38889 ft | 537 kts | 28° |
| 2026-04-26 09:48 | -30.11529 | -51.10558 | 38884 ft | 537 kts | 28° |
| 2026-04-26 09:48 | -30.05849 | -51.04947 | 38890 ft | 537 kts | 28° |
| 2026-04-26 09:49 | -30.00173 | -50.99347 | 38883 ft | 537 kts | 28° |
| 2026-04-26 09:49 | -29.94500 | -50.93761 | 38887 ft | 536 kts | 28° |
| 2026-04-26 09:50 | -29.88822 | -50.88177 | 38891 ft | 536 kts | 28° |
| 2026-04-26 09:50 | -29.82978 | -50.83004 | 38906 ft | 529 kts | 25° |
| 2026-04-26 09:51 | -29.77121 | -50.77887 | 38911 ft | 527 kts | 24° |
| 2026-04-26 09:51 | -29.71255 | -50.72796 | 38914 ft | 529 kts | 25° |
| 2026-04-26 09:52 | -29.65427 | -50.67724 | 38912 ft | 528 kts | 25° |
| 2026-04-26 09:52 | -29.56622 | -50.60094 | 38926 ft | 529 kts | 25° |
| 2026-04-26 09:53 | -29.50751 | -50.55010 | 38927 ft | 527 kts | 25° |
| 2026-04-26 09:53 | -29.44877 | -50.49968 | 38930 ft | 528 kts | 25° |
| 2026-04-26 09:54 | -29.39002 | -50.44913 | 38936 ft | 528 kts | 25° |
| 2026-04-26 09:54 | -29.33121 | -50.39872 | 38930 ft | 528 kts | 25° |
| 2026-04-26 09:55 | -29.27232 | -50.34825 | 38932 ft | 529 kts | 25° |
| 2026-04-26 09:55 | -29.21335 | -50.29781 | 38932 ft | 529 kts | 25° |
| 2026-04-26 09:56 | -29.15463 | -50.24765 | 38938 ft | 530 kts | 25° |
| 2026-04-26 09:56 | -29.09557 | -50.19728 | 38942 ft | 530 kts | 25° |
| 2026-04-26 09:57 | -29.03642 | -50.14690 | 38938 ft | 529 kts | 25° |
| 2026-04-26 09:57 | -28.97740 | -50.09671 | 38932 ft | 528 kts | 25° |
| 2026-04-26 09:58 | -28.91844 | -50.04664 | 38934 ft | 527 kts | 25° |
| 2026-04-26 09:58 | -28.86002 | -49.99710 | 38927 ft | 526 kts | 25° |
| 2026-04-26 09:59 | -28.80103 | -49.94712 | 38976 ft | 518 kts | 25° |
| 2026-04-26 09:59 | -28.74294 | -49.89816 | 38944 ft | 526 kts | 25° |
| 2026-04-26 10:00 | -28.68443 | -49.84856 | 38926 ft | 523 kts | 25° |
| 2026-04-26 10:00 | -28.62594 | -49.79931 | 38916 ft | 521 kts | 25° |
| 2026-04-26 10:01 | -28.56773 | -49.75028 | 38933 ft | 522 kts | 25° |
| 2026-04-26 10:01 | -28.50983 | -49.70153 | 38936 ft | 522 kts | 25° |
| 2026-04-26 10:02 | -28.45142 | -49.65246 | 38935 ft | 520 kts | 25° |
| 2026-04-26 10:02 | -28.39321 | -49.60366 | 38935 ft | 521 kts | 25° |
| 2026-04-26 10:03 | -28.33479 | -49.55474 | 38945 ft | 522 kts | 25° |
| 2026-04-26 10:03 | -28.27633 | -49.50581 | 38944 ft | 519 kts | 25° |
| 2026-04-26 10:04 | -28.21797 | -49.45714 | 38947 ft | 522 kts | 25° |
| 2026-04-26 10:04 | -28.15988 | -49.40865 | 38936 ft | 522 kts | 25° |
| 2026-04-26 10:05 | -28.10106 | -49.35971 | 38932 ft | 523 kts | 26° |
| 2026-04-26 10:05 | -28.04258 | -49.31038 | 38935 ft | 525 kts | 27° |
| 2026-04-26 10:06 | -27.98450 | -49.26058 | 38944 ft | 522 kts | 26° |
| 2026-04-26 10:06 | -27.92625 | -49.21137 | 38940 ft | 523 kts | 27° |
| 2026-04-26 10:07 | -27.86785 | -49.16255 | 38949 ft | 519 kts | 24° |
| 2026-04-26 10:07 | -27.80878 | -49.11487 | 38948 ft | 523 kts | 26° |
| 2026-04-26 10:08 | -27.74996 | -49.06767 | 38951 ft | 522 kts | 25° |
| 2026-04-26 10:08 | -27.69861 | -49.02659 | 38947 ft | 522 kts | 26° |
| 2026-04-26 10:09 | -27.63990 | -48.97815 | 38937 ft | 523 kts | 27° |
| 2026-04-26 10:09 | -27.58118 | -48.92993 | 38938 ft | 522 kts | 26° |
| 2026-04-26 10:10 | -27.52253 | -48.88168 | 38930 ft | 523 kts | 27° |
| 2026-04-26 10:10 | -27.46373 | -48.83339 | 38934 ft | 523 kts | 27° |
| 2026-04-26 10:11 | -27.40484 | -48.78511 | 38929 ft | 523 kts | 27° |
| 2026-04-26 10:11 | -27.34604 | -48.73695 | 38924 ft | 524 kts | 27° |
| 2026-04-26 10:12 | -27.28702 | -48.68871 | 38922 ft | 526 kts | 27° |
| 2026-04-26 10:12 | -27.22839 | -48.64034 | 38920 ft | 527 kts | 28° |
| 2026-04-26 10:13 | -27.16994 | -48.59055 | 38916 ft | 526 kts | 27° |
| 2026-04-26 10:13 | -27.11029 | -48.54319 | 38912 ft | 525 kts | 26° |
| 2026-04-26 10:14 | -27.05109 | -48.49488 | 38921 ft | 526 kts | 27° |
| 2026-04-26 10:14 | -26.99179 | -48.44725 | 38914 ft | 524 kts | 26° |
| 2026-04-26 10:15 | -26.93272 | -48.39956 | 38909 ft | 523 kts | 27° |
| 2026-04-26 10:15 | -26.87369 | -48.35209 | 38915 ft | 521 kts | 27° |
| 2026-04-26 10:16 | -26.81482 | -48.30478 | 38912 ft | 520 kts | 27° |
| 2026-04-26 10:16 | -26.75608 | -48.25761 | 38926 ft | 519 kts | 27° |
| 2026-04-26 10:17 | -26.69731 | -48.21050 | 38922 ft | 520 kts | 27° |
| 2026-04-26 10:17 | -26.63866 | -48.16316 | 38922 ft | 519 kts | 27° |
| 2026-04-26 10:18 | -26.58031 | -48.11630 | 38926 ft | 520 kts | 27° |
| 2026-04-26 10:18 | -26.52143 | -48.06898 | 38924 ft | 521 kts | 27° |
| 2026-04-26 10:19 | -26.46256 | -48.02179 | 38920 ft | 521 kts | 27° |
| 2026-04-26 10:19 | -26.40364 | -47.97458 | 38931 ft | 522 kts | 27° |
| 2026-04-26 10:20 | -26.35455 | -47.93531 | 38933 ft | 522 kts | 28° |
| 2026-04-26 10:20 | -26.28548 | -47.88011 | 38926 ft | 523 kts | 28° |
| 2026-04-26 10:21 | -26.22631 | -47.83288 | 38921 ft | 523 kts | 28° |
| 2026-04-26 10:21 | -26.16719 | -47.78576 | 38920 ft | 523 kts | 28° |
| 2026-04-26 10:22 | -26.10808 | -47.73870 | 38917 ft | 522 kts | 28° |
| 2026-04-26 10:22 | -26.04899 | -47.69174 | 38917 ft | 522 kts | 28° |
| 2026-04-26 10:23 | -25.98994 | -47.64486 | 38920 ft | 522 kts | 28° |
| 2026-04-26 10:23 | -25.93122 | -47.59830 | 38919 ft | 522 kts | 28° |
| 2026-04-26 10:24 | -25.87207 | -47.55147 | 38923 ft | 522 kts | 28° |
| 2026-04-26 10:24 | -25.81302 | -47.50475 | 38925 ft | 521 kts | 28° |
| 2026-04-26 10:25 | -25.75399 | -47.45813 | 38916 ft | 521 kts | 28° |
| 2026-04-26 10:25 | -25.69500 | -47.41159 | 38919 ft | 520 kts | 28° |
| 2026-04-26 10:26 | -25.63599 | -47.36510 | 38920 ft | 520 kts | 28° |
| 2026-04-26 10:26 | -25.57710 | -47.31875 | 38917 ft | 519 kts | 28° |
| 2026-04-26 10:27 | -25.51815 | -47.27242 | 38920 ft | 519 kts | 28° |
| 2026-04-26 10:27 | -25.45929 | -47.22621 | 38924 ft | 519 kts | 28° |
| 2026-04-26 10:28 | -25.40038 | -47.18003 | 38922 ft | 519 kts | 28° |
| 2026-04-26 10:28 | -25.35143 | -47.14169 | 38921 ft | 519 kts | 28° |
| 2026-04-26 10:29 | -25.28291 | -47.08809 | 38923 ft | 519 kts | 29° |
| 2026-04-26 10:29 | -25.22396 | -47.04204 | 38935 ft | 519 kts | 29° |
| 2026-04-26 10:30 | -25.17454 | -47.00348 | 38927 ft | 520 kts | 29° |
| 2026-04-26 10:30 | -25.11461 | -46.96032 | 38943 ft | 515 kts | 24° |
| 2026-04-26 10:31 | -25.05293 | -46.91973 | 38942 ft | 517 kts | 24° |
| 2026-04-26 10:31 | -24.99106 | -46.87921 | 38938 ft | 517 kts | 24° |
| 2026-04-26 10:32 | -24.92904 | -46.83859 | 38936 ft | 518 kts | 25° |
| 2026-04-26 10:32 | -24.85702 | -46.79149 | 38933 ft | 518 kts | 25° |
| 2026-04-26 10:33 | -24.80511 | -46.75758 | 38934 ft | 517 kts | 25° |
| 2026-04-26 10:33 | -24.74366 | -46.71748 | 38930 ft | 517 kts | 25° |
| 2026-04-26 10:34 | -24.68173 | -46.67713 | 38936 ft | 517 kts | 25° |
| 2026-04-26 10:34 | -24.61927 | -46.63810 | 38962 ft | 509 kts | 16° |
| 2026-04-26 10:35 | -24.55226 | -46.61861 | 38961 ft | 493 kts | 1° |
| 2026-04-26 10:35 | -24.48401 | -46.60898 | 38946 ft | 494 kts | 0° |
| 2026-04-26 10:36 | -24.41575 | -46.59982 | 38945 ft | 494 kts | 1° |
| 2026-04-26 10:36 | -24.34788 | -46.59043 | 38950 ft | 494 kts | 1° |
| 2026-04-26 10:37 | -24.27958 | -46.58116 | 38950 ft | 495 kts | 1° |
| 2026-04-26 10:37 | -24.21123 | -46.57180 | 38949 ft | 495 kts | 1° |
| 2026-04-26 10:38 | -24.14283 | -46.56249 | 38944 ft | 495 kts | 1° |
| 2026-04-26 10:38 | -24.07441 | -46.55316 | 38948 ft | 495 kts | 1° |
| 2026-04-26 10:39 | -24.00595 | -46.54384 | 38956 ft | 496 kts | 1° |
| 2026-04-26 10:39 | -23.93750 | -46.53452 | 38975 ft | 496 kts | 1° |
| 2026-04-26 10:40 | -23.86934 | -46.52172 | 39029 ft | 503 kts | 10° |
| 2026-04-26 10:40 | -23.80164 | -46.50180 | 39041 ft | 502 kts | 10° |
| 2026-04-26 10:41 | -23.73424 | -46.48182 | 39048 ft | 503 kts | 10° |
| 2026-04-26 10:41 | -23.66652 | -46.46197 | 39055 ft | 503 kts | 10° |
| 2026-04-26 10:42 | -23.59930 | -46.44216 | 39059 ft | 504 kts | 10° |
| 2026-04-26 10:42 | -23.53164 | -46.42234 | 39067 ft | 504 kts | 10° |
| 2026-04-26 10:43 | -23.46391 | -46.40247 | 39069 ft | 504 kts | 10° |
| 2026-04-26 10:43 | -23.39615 | -46.38309 | 39073 ft | 501 kts | 6° |
| 2026-04-26 10:44 | -23.32791 | -46.36682 | 39063 ft | 503 kts | 8° |
| 2026-04-26 10:44 | -23.25951 | -46.35043 | 39066 ft | 503 kts | 7° |
| 2026-04-26 10:45 | -23.19110 | -46.33419 | 39056 ft | 503 kts | 8° |
| 2026-04-26 10:45 | -23.12271 | -46.31785 | 39050 ft | 503 kts | 8° |
| 2026-04-26 10:46 | -23.05410 | -46.30159 | 39046 ft | 504 kts | 8° |
| 2026-04-26 10:46 | -22.98566 | -46.28530 | 39050 ft | 503 kts | 8° |
| 2026-04-26 10:47 | -22.91714 | -46.26907 | 39044 ft | 504 kts | 8° |
| 2026-04-26 10:47 | -22.84872 | -46.25283 | 39059 ft | 503 kts | 8° |
| 2026-04-26 10:48 | -22.78022 | -46.23608 | 39066 ft | 507 kts | 15° |
| 2026-04-26 10:48 | -22.74738 | -46.22177 | 39090 ft | 513 kts | 26° |
| 2026-04-26 10:48 | -22.71732 | -46.20138 | 39111 ft | 518 kts | 33° |
| 2026-04-26 10:49 | -22.66006 | -46.15399 | 39078 ft | 519 kts | 37° |
| 2026-04-26 10:49 | -22.60394 | -46.10476 | 39088 ft | 519 kts | 36° |
| 2026-04-26 10:50 | -22.55715 | -46.06328 | 39097 ft | 519 kts | 37° |
| 2026-04-26 10:50 | -22.49211 | -46.00592 | 39100 ft | 518 kts | 36° |
| 2026-04-26 10:51 | -22.40831 | -45.93202 | 39097 ft | 518 kts | 37° |
| 2026-04-26 10:52 | -22.35229 | -45.88277 | 39089 ft | 518 kts | 37° |
| 2026-04-26 10:52 | -22.29644 | -45.83366 | 39091 ft | 517 kts | 37° |
| 2026-04-26 10:53 | -22.24042 | -45.78488 | 39090 ft | 517 kts | 36° |
| 2026-04-26 10:53 | -22.18417 | -45.73649 | 39088 ft | 517 kts | 37° |
| 2026-04-26 10:54 | -22.10055 | -45.66422 | 39083 ft | 516 kts | 36° |
| 2026-04-26 10:54 | -22.04451 | -45.61590 | 39085 ft | 515 kts | 36° |
| 2026-04-26 10:55 | -21.98858 | -45.56772 | 39085 ft | 515 kts | 36° |
| 2026-04-26 10:55 | -21.93260 | -45.51957 | 39082 ft | 515 kts | 36° |
| 2026-04-26 10:56 | -21.87659 | -45.47143 | 39083 ft | 514 kts | 36° |
| 2026-04-26 10:56 | -21.82062 | -45.42338 | 39083 ft | 514 kts | 36° |
| 2026-04-26 10:57 | -21.76468 | -45.37540 | 39085 ft | 514 kts | 36° |
| 2026-04-26 10:57 | -21.70871 | -45.32745 | 39086 ft | 514 kts | 36° |
| 2026-04-26 10:58 | -21.65282 | -45.27961 | 39082 ft | 513 kts | 36° |
| 2026-04-26 10:58 | -21.59736 | -45.23219 | 39084 ft | 513 kts | 36° |
| 2026-04-26 10:59 | -21.54143 | -45.18442 | 39082 ft | 513 kts | 37° |
| 2026-04-26 10:59 | -21.48551 | -45.13670 | 39081 ft | 513 kts | 37° |
| 2026-04-26 11:00 | -21.42968 | -45.08911 | 39084 ft | 512 kts | 37° |
| 2026-04-26 11:00 | -21.37388 | -45.04159 | 39083 ft | 512 kts | 37° |
| 2026-04-26 11:01 | -21.31808 | -44.99410 | 39124 ft | 512 kts | 36° |
| 2026-04-26 11:01 | -21.26302 | -44.94733 | 39088 ft | 504 kts | 36° |
| 2026-04-26 11:02 | -21.20820 | -44.90079 | 39090 ft | 505 kts | 36° |
| 2026-04-26 11:02 | -21.15311 | -44.85405 | 39091 ft | 505 kts | 36° |
| 2026-04-26 11:03 | -21.09801 | -44.80736 | 39095 ft | 504 kts | 36° |
| 2026-04-26 11:03 | -21.04271 | -44.76128 | 39105 ft | 502 kts | 31° |
| 2026-04-26 11:04 | -20.98575 | -44.71773 | 39105 ft | 504 kts | 33° |
| 2026-04-26 11:04 | -20.92868 | -44.67408 | 39102 ft | 504 kts | 33° |
| 2026-04-26 11:05 | -20.87157 | -44.63057 | 39109 ft | 504 kts | 33° |
| 2026-04-26 11:05 | -20.81455 | -44.58702 | 39106 ft | 503 kts | 33° |
| 2026-04-26 11:06 | -20.76710 | -44.55093 | 39103 ft | 504 kts | 33° |
| 2026-04-26 11:06 | -20.70087 | -44.50041 | 39101 ft | 502 kts | 33° |
| 2026-04-26 11:07 | -20.64388 | -44.45707 | 39101 ft | 502 kts | 33° |
| 2026-04-26 11:07 | -20.58698 | -44.41379 | 39098 ft | 502 kts | 33° |
| 2026-04-26 11:08 | -20.53038 | -44.37081 | 39100 ft | 502 kts | 33° |
| 2026-04-26 11:08 | -20.47313 | -44.32736 | 39097 ft | 502 kts | 33° |
| 2026-04-26 11:09 | -20.41718 | -44.28363 | 39104 ft | 502 kts | 35° |
| 2026-04-26 11:09 | -20.36086 | -44.23972 | 39105 ft | 502 kts | 34° |
| 2026-04-26 11:10 | -20.30504 | -44.19509 | 39107 ft | 501 kts | 35° |
| 2026-04-26 11:10 | -20.24895 | -44.15082 | 39112 ft | 501 kts | 34° |
| 2026-04-26 11:11 | -20.19301 | -44.10649 | 39108 ft | 501 kts | 35° |
| 2026-04-26 11:11 | -20.13703 | -44.06224 | 39119 ft | 500 kts | 35° |
| 2026-04-26 11:12 | -20.08111 | -44.01806 | 39133 ft | 500 kts | 35° |
| 2026-04-26 11:12 | -20.02564 | -43.97440 | 39141 ft | 499 kts | 35° |
| 2026-04-26 11:13 | -19.96980 | -43.93046 | 39153 ft | 499 kts | 35° |
| 2026-04-26 11:13 | -19.91394 | -43.88654 | 39156 ft | 499 kts | 35° |
| 2026-04-26 11:14 | -19.85810 | -43.84271 | 39151 ft | 498 kts | 34° |
| 2026-04-26 11:14 | -19.81047 | -43.80838 | 39156 ft | 498 kts | 33° |
| 2026-04-26 11:15 | -19.74375 | -43.75953 | 39155 ft | 498 kts | 32° |
| 2026-04-26 11:15 | -19.68632 | -43.71821 | 39154 ft | 498 kts | 33° |
| 2026-04-26 11:16 | -19.62913 | -43.67668 | 39141 ft | 498 kts | 33° |
| 2026-04-26 11:16 | -19.57171 | -43.63530 | 39131 ft | 498 kts | 33° |
| 2026-04-26 11:17 | -19.51491 | -43.59423 | 39114 ft | 497 kts | 33° |
| 2026-04-26 11:17 | -19.45760 | -43.55294 | 39104 ft | 497 kts | 33° |
| 2026-04-26 11:18 | -19.41013 | -43.51870 | 39106 ft | 497 kts | 33° |
| 2026-04-26 11:18 | -19.35298 | -43.47756 | 39102 ft | 496 kts | 33° |
| 2026-04-26 11:19 | -19.29642 | -43.43559 | 39116 ft | 496 kts | 37° |
| 2026-04-26 11:19 | -19.24114 | -43.39191 | 39106 ft | 496 kts | 35° |
| 2026-04-26 11:20 | -19.18593 | -43.34797 | 39106 ft | 496 kts | 36° |
| 2026-04-26 11:20 | -19.13064 | -43.30410 | 39107 ft | 497 kts | 36° |
| 2026-04-26 11:21 | -19.07529 | -43.26024 | 39109 ft | 497 kts | 36° |
| 2026-04-26 11:21 | -19.02029 | -43.21663 | 39103 ft | 497 kts | 36° |
| 2026-04-26 11:22 | -18.96495 | -43.17285 | 39106 ft | 496 kts | 36° |
| 2026-04-26 11:22 | -18.90969 | -43.12913 | 39102 ft | 497 kts | 36° |
| 2026-04-26 11:23 | -18.85443 | -43.08547 | 39102 ft | 496 kts | 36° |
| 2026-04-26 11:23 | -18.79912 | -43.04179 | 39098 ft | 496 kts | 36° |
| 2026-04-26 11:24 | -18.74388 | -42.99817 | 39101 ft | 495 kts | 36° |
| 2026-04-26 11:24 | -18.68871 | -42.95458 | 39095 ft | 495 kts | 36° |
| 2026-04-26 11:25 | -18.63352 | -42.91106 | 39092 ft | 495 kts | 36° |
| 2026-04-26 11:25 | -18.57847 | -42.86765 | 39095 ft | 495 kts | 36° |
| 2026-04-26 11:26 | -18.52327 | -42.82417 | 39088 ft | 494 kts | 36° |
| 2026-04-26 11:26 | -18.46855 | -42.78119 | 39091 ft | 494 kts | 35° |
| 2026-04-26 11:27 | -18.41343 | -42.73789 | 39091 ft | 494 kts | 35° |
| 2026-04-26 11:27 | -18.35828 | -42.69463 | 39085 ft | 493 kts | 35° |
| 2026-04-26 11:28 | -18.30328 | -42.65150 | 39083 ft | 493 kts | 35° |
| 2026-04-26 11:28 | -18.24823 | -42.60837 | 39086 ft | 493 kts | 35° |
| 2026-04-26 11:29 | -18.19312 | -42.56523 | 39085 ft | 493 kts | 35° |
| 2026-04-26 11:29 | -18.13816 | -42.52224 | 39081 ft | 493 kts | 35° |
| 2026-04-26 11:30 | -18.09233 | -42.48643 | 39081 ft | 493 kts | 35° |
| 2026-04-26 11:30 | -18.02844 | -42.43653 | 39084 ft | 492 kts | 35° |
| 2026-04-26 11:31 | -17.97343 | -42.39361 | 39083 ft | 491 kts | 35° |
| 2026-04-26 11:31 | -17.91857 | -42.35084 | 39083 ft | 491 kts | 35° |
| 2026-04-26 11:32 | -17.86372 | -42.30812 | 39087 ft | 490 kts | 35° |
| 2026-04-26 11:32 | -17.80889 | -42.26543 | 39087 ft | 490 kts | 35° |
| 2026-04-26 11:33 | -17.75444 | -42.22308 | 39089 ft | 490 kts | 35° |
| 2026-04-26 11:33 | -17.69969 | -42.18053 | 39089 ft | 490 kts | 35° |
| 2026-04-26 11:34 | -17.64496 | -42.13802 | 39093 ft | 489 kts | 35° |
| 2026-04-26 11:34 | -17.59027 | -42.09559 | 39095 ft | 489 kts | 35° |
| 2026-04-26 11:35 | -17.53564 | -42.05322 | 39097 ft | 488 kts | 35° |
| 2026-04-26 11:35 | -17.48101 | -42.01089 | 39096 ft | 488 kts | 35° |
| 2026-04-26 11:36 | -17.42650 | -41.96866 | 39096 ft | 487 kts | 35° |
| 2026-04-26 11:36 | -17.37206 | -41.92646 | 39098 ft | 487 kts | 35° |
| 2026-04-26 11:37 | -17.31755 | -41.88428 | 39100 ft | 487 kts | 35° |
| 2026-04-26 11:37 | -17.26338 | -41.84238 | 39097 ft | 487 kts | 35° |
| 2026-04-26 11:38 | -17.20895 | -41.80029 | 39095 ft | 487 kts | 35° |
| 2026-04-26 11:38 | -17.15450 | -41.75825 | 39098 ft | 486 kts | 35° |
| 2026-04-26 11:39 | -17.10005 | -41.71622 | 39090 ft | 486 kts | 35° |
| 2026-04-26 11:39 | -17.04571 | -41.67431 | 39096 ft | 486 kts | 35° |
| 2026-04-26 11:40 | -16.99124 | -41.63233 | 39097 ft | 485 kts | 35° |
| 2026-04-26 11:40 | -16.93687 | -41.59046 | 39096 ft | 485 kts | 35° |
| 2026-04-26 11:42 | -16.71994 | -41.42370 | 39096 ft | 485 kts | 35° |
| 2026-04-26 11:43 | -16.66567 | -41.38191 | 39092 ft | 485 kts | 36° |
| 2026-04-26 11:43 | -16.61167 | -41.33980 | 39092 ft | 485 kts | 36° |
| 2026-04-26 11:44 | -16.55764 | -41.29802 | 39093 ft | 485 kts | 36° |
| 2026-04-26 11:44 | -16.50336 | -41.25591 | 39096 ft | 485 kts | 36° |
| 2026-04-26 11:45 | -16.44924 | -41.21402 | 39091 ft | 485 kts | 36° |
| 2026-04-26 11:45 | -16.39510 | -41.17212 | 39097 ft | 485 kts | 36° |
| 2026-04-26 11:46 | -16.34089 | -41.13021 | 39093 ft | 485 kts | 36° |
| 2026-04-26 11:46 | -16.28671 | -41.08835 | 39091 ft | 485 kts | 36° |
| 2026-04-26 11:47 | -16.23283 | -41.04675 | 39100 ft | 485 kts | 36° |
| 2026-04-26 11:47 | -16.17864 | -41.00493 | 39096 ft | 485 kts | 36° |
| 2026-04-26 11:48 | -16.12443 | -40.96314 | 39093 ft | 485 kts | 36° |
| 2026-04-26 11:48 | -16.07023 | -40.92137 | 39091 ft | 484 kts | 36° |
| 2026-04-26 11:49 | -16.01610 | -40.87970 | 39094 ft | 484 kts | 36° |
| 2026-04-26 11:49 | -15.96186 | -40.83797 | 39098 ft | 484 kts | 36° |
| 2026-04-26 11:50 | -15.90808 | -40.79661 | 39095 ft | 484 kts | 36° |
| 2026-04-26 11:50 | -15.85390 | -40.75498 | 39095 ft | 484 kts | 36° |
| 2026-04-26 11:51 | -15.79969 | -40.71336 | 39094 ft | 485 kts | 36° |
| 2026-04-26 11:51 | -15.74549 | -40.67176 | 39095 ft | 484 kts | 36° |
| 2026-04-26 11:52 | -15.70005 | -40.63692 | 39093 ft | 484 kts | 36° |
| 2026-04-26 11:52 | -15.63708 | -40.58866 | 39093 ft | 484 kts | 36° |
| 2026-04-26 11:53 | -15.58284 | -40.54713 | 39090 ft | 484 kts | 36° |
| 2026-04-26 11:54 | -15.50152 | -40.48491 | 39091 ft | 484 kts | 36° |
| 2026-04-26 11:54 | -15.44735 | -40.44350 | 39088 ft | 484 kts | 36° |
| 2026-04-26 11:55 | -15.39352 | -40.40238 | 39085 ft | 484 kts | 36° |
| 2026-04-26 11:55 | -15.33930 | -40.36098 | 39085 ft | 484 kts | 36° |
| 2026-04-26 11:56 | -15.28516 | -40.31967 | 39087 ft | 484 kts | 36° |
| 2026-04-26 11:56 | -15.23090 | -40.27831 | 39083 ft | 484 kts | 36° |
| 2026-04-26 11:57 | -15.17671 | -40.23703 | 39089 ft | 483 kts | 36° |
| 2026-04-26 11:57 | -15.12257 | -40.19581 | 39088 ft | 483 kts | 36° |
| 2026-04-26 11:58 | -15.06842 | -40.15461 | 39088 ft | 483 kts | 36° |
| 2026-04-26 11:58 | -15.01417 | -40.11337 | 39089 ft | 483 kts | 36° |
| 2026-04-26 11:59 | -14.96001 | -40.07221 | 39088 ft | 483 kts | 36° |
| 2026-04-26 11:59 | -14.90589 | -40.03112 | 39086 ft | 483 kts | 36° |
| 2026-04-26 12:00 | -14.85213 | -39.99033 | 39085 ft | 483 kts | 36° |
| 2026-04-26 12:00 | -14.79752 | -39.94891 | 39084 ft | 483 kts | 36° |
| 2026-04-26 12:01 | -14.74331 | -39.90782 | 39083 ft | 483 kts | 36° |
| 2026-04-26 12:01 | -14.68937 | -39.86697 | 39082 ft | 484 kts | 36° |
| 2026-04-26 12:02 | -14.63508 | -39.82588 | 39082 ft | 484 kts | 36° |
| 2026-04-26 12:02 | -14.58078 | -39.78481 | 39081 ft | 484 kts | 36° |
| 2026-04-26 12:03 | -14.52636 | -39.74367 | 39084 ft | 485 kts | 36° |
| 2026-04-26 12:03 | -14.47188 | -39.70250 | 39080 ft | 485 kts | 36° |
| 2026-04-26 12:04 | -14.41735 | -39.66133 | 39082 ft | 486 kts | 36° |
| 2026-04-26 12:04 | -14.36274 | -39.62012 | 39081 ft | 486 kts | 36° |
| 2026-04-26 12:05 | -14.30820 | -39.57899 | 39077 ft | 486 kts | 36° |
| 2026-04-26 12:05 | -14.25379 | -39.53822 | 39078 ft | 486 kts | 35° |
| 2026-04-26 12:06 | -14.19896 | -39.49713 | 39075 ft | 487 kts | 35° |
| 2026-04-26 12:06 | -14.14425 | -39.45615 | 39076 ft | 487 kts | 35° |
| 2026-04-26 12:07 | -14.08933 | -39.41506 | 39070 ft | 487 kts | 35° |
| 2026-04-26 12:07 | -14.04380 | -39.38099 | 39069 ft | 487 kts | 35° |
| 2026-04-26 12:08 | -13.98895 | -39.33999 | 39069 ft | 487 kts | 35° |
| 2026-04-26 12:08 | -13.93402 | -39.29894 | 39064 ft | 488 kts | 35° |
| 2026-04-26 12:09 | -13.87896 | -39.25782 | 39063 ft | 488 kts | 35° |
| 2026-04-26 12:09 | -13.82394 | -39.21676 | 39062 ft | 488 kts | 35° |
| 2026-04-26 12:10 | -13.76893 | -39.17574 | 39056 ft | 488 kts | 35° |
| 2026-04-26 12:10 | -13.71395 | -39.13475 | 39057 ft | 488 kts | 35° |
| 2026-04-26 12:11 | -13.65928 | -39.09402 | 39056 ft | 488 kts | 35° |
| 2026-04-26 12:11 | -13.60416 | -39.05299 | 39054 ft | 489 kts | 35° |
| 2026-04-26 12:12 | -13.54903 | -39.01206 | 39051 ft | 489 kts | 35° |
| 2026-04-26 12:12 | -13.49380 | -38.97124 | 39051 ft | 489 kts | 35° |
| 2026-04-26 12:13 | -13.43862 | -38.93036 | 39049 ft | 489 kts | 35° |
| 2026-04-26 12:13 | -13.38338 | -38.88955 | 39049 ft | 489 kts | 35° |
| 2026-04-26 12:14 | -13.32849 | -38.84896 | 39046 ft | 489 kts | 35° |
| 2026-04-26 12:14 | -13.27324 | -38.80818 | 39047 ft | 489 kts | 35° |
| 2026-04-26 12:15 | -13.21793 | -38.76732 | 39047 ft | 489 kts | 35° |
| 2026-04-26 12:15 | -13.16264 | -38.72655 | 39049 ft | 490 kts | 35° |
| 2026-04-26 12:16 | -13.10734 | -38.68576 | 39048 ft | 490 kts | 35° |
| 2026-04-26 12:16 | -13.05196 | -38.64495 | 39044 ft | 489 kts | 35° |
| 2026-04-26 12:17 | -12.99668 | -38.60424 | 39043 ft | 489 kts | 35° |
| 2026-04-26 12:17 | -12.94136 | -38.56352 | 39043 ft | 490 kts | 35° |
| 2026-04-26 12:18 | -12.88858 | -38.52469 | 39043 ft | 490 kts | 35° |
| 2026-04-26 12:18 | -12.83357 | -38.48424 | 39042 ft | 490 kts | 35° |
| 2026-04-26 12:19 | -12.77813 | -38.44349 | 39043 ft | 490 kts | 35° |
| 2026-04-26 12:19 | -12.72261 | -38.40271 | 39044 ft | 491 kts | 35° |
| 2026-04-26 12:20 | -12.66712 | -38.36198 | 39043 ft | 491 kts | 35° |
| 2026-04-26 12:20 | -12.61164 | -38.32127 | 39038 ft | 490 kts | 36° |
| 2026-04-26 12:21 | -12.55617 | -38.28060 | 39040 ft | 490 kts | 36° |
| 2026-04-26 12:21 | -12.50068 | -38.23992 | 39036 ft | 490 kts | 36° |
| 2026-04-26 12:22 | -12.44509 | -38.19921 | 39053 ft | 491 kts | 36° |
| 2026-04-26 12:22 | -12.38954 | -38.15854 | 39040 ft | 491 kts | 36° |
| 2026-04-26 12:23 | -12.33435 | -38.11815 | 39043 ft | 490 kts | 36° |
| 2026-04-26 12:23 | -12.27891 | -38.07761 | 39038 ft | 489 kts | 36° |
| 2026-04-26 12:24 | -12.22350 | -38.03715 | 39034 ft | 490 kts | 36° |
| 2026-04-26 12:24 | -12.16793 | -37.99659 | 39034 ft | 491 kts | 36° |
| 2026-04-26 12:25 | -12.08459 | -37.93580 | 39035 ft | 491 kts | 36° |
| 2026-04-26 12:25 | -12.02900 | -37.89528 | 39032 ft | 491 kts | 36° |
| 2026-04-26 12:26 | -11.97354 | -37.85488 | 39030 ft | 489 kts | 36° |
| 2026-04-26 12:26 | -11.91847 | -37.81477 | 39031 ft | 488 kts | 36° |
| 2026-04-26 12:27 | -11.86303 | -37.77444 | 39033 ft | 489 kts | 36° |
| 2026-04-26 12:27 | -11.80742 | -37.73418 | 39031 ft | 490 kts | 35° |
| 2026-04-26 12:28 | -11.75193 | -37.69395 | 39030 ft | 489 kts | 35° |
| 2026-04-26 12:28 | -11.69673 | -37.65398 | 39026 ft | 489 kts | 35° |
| 2026-04-26 12:29 | -11.64129 | -37.61386 | 39028 ft | 488 kts | 35° |
| 2026-04-26 12:30 | -11.55828 | -37.55381 | 39029 ft | 488 kts | 35° |
| 2026-04-26 12:30 | -11.50289 | -37.51377 | 39028 ft | 488 kts | 35° |
| 2026-04-26 12:31 | -11.41987 | -37.45379 | 39029 ft | 487 kts | 35° |
| 2026-04-26 12:31 | -11.36452 | -37.41383 | 39032 ft | 487 kts | 35° |
| 2026-04-26 12:32 | -11.30932 | -37.37399 | 39030 ft | 486 kts | 35° |
| 2026-04-26 12:33 | -11.22659 | -37.31433 | 39021 ft | 485 kts | 35° |
| 2026-04-26 12:33 | -11.17142 | -37.27456 | 39017 ft | 485 kts | 35° |
| 2026-04-26 12:34 | -11.11632 | -37.23486 | 39025 ft | 485 kts | 35° |
| 2026-04-26 12:34 | -11.06163 | -37.19547 | 39021 ft | 484 kts | 35° |
| 2026-04-26 12:35 | -11.00664 | -37.15590 | 39015 ft | 484 kts | 35° |
| 2026-04-26 12:35 | -10.95163 | -37.11644 | 39019 ft | 484 kts | 35° |
| 2026-04-26 12:36 | -10.89674 | -37.07712 | 38623 ft | 480 kts | 35° |
| 2026-04-26 12:36 | -10.86937 | -37.05750 | 37906 ft | 482 kts | 35° |
| 2026-04-26 12:36 | -10.84195 | -37.03787 | 37144 ft | 484 kts | 35° |
| 2026-04-26 12:36 | -10.81429 | -37.01807 | 36374 ft | 487 kts | 35° |
| 2026-04-26 12:37 | -10.78645 | -36.99814 | 35602 ft | 490 kts | 35° |
| 2026-04-26 12:37 | -10.75854 | -36.97816 | 34793 ft | 493 kts | 35° |
| 2026-04-26 12:37 | -10.73037 | -36.95800 | 33975 ft | 498 kts | 36° |
| 2026-04-26 12:37 | -10.70211 | -36.93779 | 33238 ft | 496 kts | 36° |
| 2026-04-26 12:38 | -10.67387 | -36.91759 | 32461 ft | 496 kts | 36° |
| 2026-04-26 12:38 | -10.64569 | -36.89744 | 31668 ft | 495 kts | 36° |
| 2026-04-26 12:38 | -10.61747 | -36.87727 | 30858 ft | 495 kts | 36° |
| 2026-04-26 12:38 | -10.58925 | -36.85710 | 29982 ft | 495 kts | 37° |
| 2026-04-26 12:39 | -10.56114 | -36.83700 | 29120 ft | 493 kts | 37° |
| 2026-04-26 12:39 | -10.53313 | -36.81700 | 28266 ft | 490 kts | 37° |
| 2026-04-26 12:39 | -10.50535 | -36.79716 | 27459 ft | 487 kts | 37° |
| 2026-04-26 12:39 | -10.47775 | -36.77745 | 26671 ft | 484 kts | 37° |
| 2026-04-26 12:40 | -10.45027 | -36.75783 | 25863 ft | 481 kts | 37° |
| 2026-04-26 12:40 | -10.42296 | -36.73834 | 25087 ft | 478 kts | 37° |
| 2026-04-26 12:40 | -10.39576 | -36.71893 | 24294 ft | 476 kts | 37° |
| 2026-04-26 12:40 | -10.36877 | -36.69967 | 23506 ft | 474 kts | 37° |
| 2026-04-26 12:41 | -10.34185 | -36.68046 | 22695 ft | 469 kts | 36° |
| 2026-04-26 12:41 | -10.31566 | -36.66179 | 21945 ft | 463 kts | 36° |
| 2026-04-26 12:41 | -10.28943 | -36.64309 | 21198 ft | 458 kts | 36° |
| 2026-04-26 12:41 | -10.26347 | -36.62459 | 20462 ft | 452 kts | 36° |
| 2026-04-26 12:42 | -10.23784 | -36.60631 | 19737 ft | 447 kts | 36° |
| 2026-04-26 12:42 | -10.21256 | -36.58830 | 19013 ft | 442 kts | 35° |
| 2026-04-26 12:42 | -10.18747 | -36.57043 | 18308 ft | 437 kts | 35° |
| 2026-04-26 12:42 | -10.16266 | -36.55277 | 17576 ft | 432 kts | 35° |
| 2026-04-26 12:43 | -10.13915 | -36.53424 | 16884 ft | 424 kts | 40° |
| 2026-04-26 12:43 | -10.11692 | -36.51496 | 16209 ft | 417 kts | 40° |
| 2026-04-26 12:43 | -10.09495 | -36.49605 | 15544 ft | 411 kts | 40° |
| 2026-04-26 12:43 | -10.07323 | -36.47740 | 14960 ft | 405 kts | 40° |
| 2026-04-26 12:44 | -10.05186 | -36.45902 | 14238 ft | 402 kts | 40° |
| 2026-04-26 12:44 | -10.03064 | -36.44074 | 13581 ft | 398 kts | 40° |
| 2026-04-26 12:44 | -10.00996 | -36.42296 | 12944 ft | 392 kts | 40° |
| 2026-04-26 12:44 | -9.98928 | -36.40518 | 12318 ft | 388 kts | 40° |
| 2026-04-26 12:45 | -9.96881 | -36.38758 | 11716 ft | 383 kts | 41° |
| 2026-04-26 12:45 | -9.94872 | -36.37030 | 11245 ft | 374 kts | 41° |
| 2026-04-26 12:45 | -9.92929 | -36.35359 | 11087 ft | 357 kts | 41° |
| 2026-04-26 12:45 | -9.91079 | -36.33769 | 10957 ft | 341 kts | 41° |
| 2026-04-26 12:46 | -9.89312 | -36.32252 | 10823 ft | 326 kts | 41° |
| 2026-04-26 12:46 | -9.87620 | -36.30797 | 10693 ft | 312 kts | 41° |
| 2026-04-26 12:46 | -9.86002 | -36.29406 | 10570 ft | 299 kts | 41° |
| 2026-04-26 12:46 | -9.84439 | -36.28064 | 10329 ft | 291 kts | 41° |
| 2026-04-26 12:47 | -9.82913 | -36.26753 | 10059 ft | 285 kts | 41° |
| 2026-04-26 12:47 | -9.81395 | -36.25449 | 9783 ft | 288 kts | 42° |
| 2026-04-26 12:47 | -9.79869 | -36.24138 | 9496 ft | 285 kts | 42° |
| 2026-04-26 12:47 | -9.78368 | -36.22850 | 9223 ft | 281 kts | 42° |
| 2026-04-26 12:48 | -9.76859 | -36.21553 | 8948 ft | 286 kts | 42° |
| 2026-04-26 12:48 | -9.75357 | -36.20265 | 8678 ft | 280 kts | 42° |
| 2026-04-26 12:48 | -9.73880 | -36.18998 | 8415 ft | 281 kts | 42° |
| 2026-04-26 12:48 | -9.72387 | -36.17715 | 8138 ft | 279 kts | 42° |
| 2026-04-26 12:49 | -9.70922 | -36.16459 | 7868 ft | 274 kts | 42° |
| 2026-04-26 12:49 | -9.69472 | -36.15216 | 7597 ft | 277 kts | 42° |
| 2026-04-26 12:49 | -9.68010 | -36.13960 | 7340 ft | 274 kts | 42° |
| 2026-04-26 12:49 | -9.66566 | -36.12722 | 7083 ft | 273 kts | 43° |
| 2026-04-26 12:50 | -9.65107 | -36.11470 | 6795 ft | 273 kts | 42° |
| 2026-04-26 12:50 | -9.63675 | -36.10243 | 6532 ft | 267 kts | 43° |
| 2026-04-26 12:50 | -9.62248 | -36.09019 | 6263 ft | 271 kts | 43° |
| 2026-04-26 12:50 | -9.60826 | -36.07799 | 5990 ft | 265 kts | 43° |
| 2026-04-26 12:51 | -9.59453 | -36.06624 | 5773 ft | 252 kts | 43° |
| 2026-04-26 12:51 | -9.58174 | -36.05530 | 5652 ft | 229 kts | 43° |
| 2026-04-26 12:51 | -9.57004 | -36.04526 | 5521 ft | 217 kts | 43° |
| 2026-04-26 12:51 | -9.55828 | -36.03571 | 5395 ft | 215 kts | 35° |
| 2026-04-26 12:52 | -9.54564 | -36.02859 | 5362 ft | 208 kts | 33° |
| 2026-04-26 12:52 | -9.53330 | -36.02100 | 5152 ft | 204 kts | 34° |
| 2026-04-26 12:52 | -9.52115 | -36.01356 | 4899 ft | 203 kts | 34° |
| 2026-04-26 12:52 | -9.50893 | -36.00624 | 4629 ft | 205 kts | 33° |
| 2026-04-26 12:53 | -9.49677 | -35.99900 | 4365 ft | 202 kts | 33° |
| 2026-04-26 12:53 | -9.48489 | -35.99163 | 4093 ft | 200 kts | 39° |
| 2026-04-26 12:53 | -9.47771 | -35.98013 | 3704 ft | 193 kts | 84° |
| 2026-04-26 12:53 | -9.47848 | -35.96699 | 3504 ft | 189 kts | 101° |
| 2026-04-26 12:54 | -9.48057 | -35.95399 | 3289 ft | 183 kts | 103° |
| 2026-04-26 12:54 | -9.48280 | -35.94175 | 3039 ft | 169 kts | 104° |
| 2026-04-26 12:54 | -9.48499 | -35.93016 | 2832 ft | 165 kts | 103° |
| 2026-04-26 12:54 | -9.48703 | -35.91911 | 2628 ft | 160 kts | 104° |
| 2026-04-26 12:55 | -9.48912 | -35.90805 | 2423 ft | 160 kts | 104° |
| 2026-04-26 12:55 | -9.49119 | -35.89717 | 2211 ft | 158 kts | 103° |
| 2026-04-26 12:55 | -9.49311 | -35.88662 | 2023 ft | 155 kts | 104° |
| 2026-04-26 12:55 | -9.49516 | -35.87585 | 1809 ft | 151 kts | 104° |
| 2026-04-26 12:56 | -9.49649 | -35.86869 | 1680 ft | 157 kts | 105° |
| 2026-04-26 12:56 | -9.49911 | -35.85446 | 1410 ft | 158 kts | 104° |
| 2026-04-26 12:56 | -9.50105 | -35.84383 | 1218 ft | 153 kts | 104° |
| 2026-04-26 12:56 | -9.50294 | -35.83340 | 1035 ft | 155 kts | 103° |
| 2026-04-26 12:57 | -9.50455 | -35.82301 | 837 ft | 151 kts | 103° |
| 2026-04-26 12:57 | -9.50670 | -35.81282 | 646 ft | 150 kts | 105° |
| 2026-04-26 12:57 | -9.50869 | -35.80316 | 403 ft | 127 kts | 102° |
| 2026-04-26 12:58 | -9.51026 | -35.79462 | 394 ft | 27 kts | 101° |
| 2026-04-26 12:58 | -9.51063 | -35.79271 | 391 ft | 28 kts | 101° |
| 2026-04-26 12:58 | -9.51100 | -35.79080 | 389 ft | 27 kts | 101° |
| 2026-04-26 12:58 | -9.51167 | -35.78933 | 389 ft | 18 kts | 121° |
| 2026-04-26 12:59 | -9.51237 | -35.78839 | 389 ft | 13 kts | 135° |
| 2026-04-26 12:59 | -9.51296 | -35.78845 | 389 ft | 5 kts | 235° |
| 2026-04-26 12:59 | -9.51294 | -35.78892 | 389 ft | 10 kts | 279° |
| 2026-04-26 12:59 | -9.51303 | -35.78972 | 390 ft | 14 kts | 241° |
| 2026-04-26 13:00 | -9.51345 | -35.79079 | 391 ft | 18 kts | 266° |
| 2026-04-26 13:00 | -9.51336 | -35.79167 | 391 ft | 12 kts | 277° |
| 2026-04-26 13:00 | -9.51346 | -35.79224 | 392 ft | 2 kts | 222° |
| 2026-04-26 13:00 | -9.51373 | -35.79238 | 392 ft | 0 kts | 205° |